Kailua Kona, HI

1:24 PM HST on September 01, 2015 (GMT -1000)
Pualani Estates | | Change Station
CLOSE
Current Station
Personal Weather Station
Location: Kailua-Kona, HI
Elevation: 420 ft
Nearby Weather Stations

Elev 420 ft 19.62 °N, 155.97 °W | Updated 29 seconds ago

Clear
Clear
88.2 °F
Feels Like 101 °F
N
1.3
Wind Variable Wind from NW
Gusts 2.5 mph

Today
High -- | Low -- °F
--% Chance of Precip.
Yesterday
High -- | Low -- °F
Precip. -- in
6:08 AM 6:38 PM
Waning Gibbous, 85% visible
Pressure 29.82 in
Visibility 10.0 miles
Clouds Clear
Heat Index 101 °F
Dew Point 78 °F
Humidity 71%
Rainfall 0.00 in
Snow Depth Not available.
UV 9.0 out of 12
Pollen Not available.
Air Quality Not available.
Flu Activity Not available.
METAR PHKO 012253Z 23009KT 10SM CLR 32/24 A2982 RMK AO2 SLP098 T03170244
Pressure 29.82 in
Visibility 10.0 miles
Clouds Clear
Heat Index 101 °F
Dew Point 78 °F
Humidity 71%
Rainfall 0.00 in
Snow Depth Not available.
UV 9.0 out of 12
Pollen Not available.
Air Quality Not available.
Flu Activity Not available.
METAR PHKO 012253Z 23009KT 10SM CLR 32/24 A2982 RMK AO2 SLP098 T03170244

10-Day Weather Forecast

×

Almanac

Astronomy

Sep. 01, 2015 Rise Set
Actual Time
Civil Twilight
Nautical Twilight
Astronomical Twilight
Moon
Length of Visible Light
Length of Day
Tomorrow will be .
, % of the Moon is Illuminated

Today's Extremes

State Highs State Lows

Community

WunderPhotos

Upload Photos

1,851,640 photos uploaded!

WunderBlogs® & News

Nearby

Air Quality

  Air Quality AQ Index Pollutant
Not available.

Snow Depth

Station Depth Elevation

Earthquake Activity

City Distance Mag. Time & Date
Minimum magnitude displayed is 2.5.

Coastal Water Temperatures

Place Temperature

Stations

Nearby Weather Stations

Station Location Temp. Windchill Dew Point Humidity Wind Precip. Elev Updated Type